createdAt,value
2023-10-20T00:01:35.555Z,6.68
2023-10-20T00:04:05.193Z,10.02
2023-10-20T00:06:32.213Z,5.97
2023-10-20T00:08:59.841Z,5.95
2023-10-20T00:11:44.785Z,7.40
2023-10-20T00:14:12.622Z,6.78
2023-10-20T00:16:39.569Z,7.43
2023-10-20T00:19:08.224Z,8.60
2023-10-20T00:21:36.700Z,9.20
2023-10-20T00:24:04.026Z,11.70
2023-10-20T00:26:30.929Z,12.20
2023-10-20T00:28:57.887Z,12.43
2023-10-20T00:31:24.949Z,10.80
2023-10-20T00:33:51.966Z,10.13
2023-10-20T00:36:18.845Z,10.23
2023-10-20T00:38:45.673Z,9.23
2023-10-20T00:41:14.978Z,10.27
2023-10-20T00:43:41.982Z,12.35
2023-10-20T00:46:09.896Z,12.43
2023-10-20T00:48:37.499Z,9.65
2023-10-20T00:51:08.770Z,11.15
2023-10-20T00:53:37.366Z,11.48
2023-10-20T00:56:07.694Z,7.75
2023-10-20T00:58:35.001Z,10.07
2023-10-20T01:01:05.401Z,9.38
2023-10-20T01:03:35.119Z,8.65
2023-10-20T01:06:06.017Z,8.85
2023-10-20T01:08:32.973Z,10.52
2023-10-20T01:10:59.974Z,9.45
2023-10-20T01:13:26.949Z,7.97
2023-10-20T01:15:55.187Z,8.93
2023-10-20T01:18:22.612Z,9.02
2023-10-20T01:20:49.861Z,7.82
2023-10-20T01:23:16.851Z,8.85
2023-10-20T01:25:44.730Z,8.88
2023-10-20T01:28:14.794Z,8.25
2023-10-20T01:30:42.942Z,9.75
2023-10-20T01:33:10.030Z,7.40
2023-10-20T01:35:41.128Z,9.63
2023-10-20T01:38:08.612Z,6.85
2023-10-20T01:40:35.775Z,7.65
2023-10-20T01:43:02.690Z,8.02
2023-10-20T01:45:29.540Z,7.50
2023-10-20T01:47:56.710Z,6.85
2023-10-20T01:50:25.008Z,8.18
2023-10-20T01:52:51.963Z,6.93
2023-10-20T01:55:19.382Z,9.20
2023-10-20T01:57:46.345Z,7.15
2023-10-20T02:00:15.629Z,8.82
2023-10-20T02:02:42.816Z,7.80
2023-10-20T02:05:10.597Z,8.20
2023-10-20T02:07:38.625Z,8.50
2023-10-20T02:10:10.534Z,7.88
2023-10-20T02:12:38.138Z,6.82
2023-10-20T02:15:07.444Z,11.70
2023-10-20T02:17:34.555Z,6.57
2023-10-20T02:20:01.769Z,6.68
2023-10-20T02:22:28.954Z,6.38
2023-10-20T02:24:56.705Z,6.53
2023-10-20T02:27:23.594Z,8.43
2023-10-20T02:29:50.420Z,9.15
2023-10-20T02:32:17.353Z,8.32
2023-10-20T02:34:49.381Z,7.72
2023-10-20T02:37:16.493Z,7.72
2023-10-20T02:39:51.875Z,6.70
2023-10-20T02:42:18.931Z,7.38
2023-10-20T02:44:45.834Z,7.15
2023-10-20T02:47:13.175Z,5.80
2023-10-20T02:49:40.066Z,5.45
2023-10-20T02:52:10.123Z,4.65
2023-10-20T02:54:38.516Z,4.47
2023-10-20T02:57:10.331Z,6.90
2023-10-20T02:59:40.267Z,4.38
2023-10-20T03:02:07.684Z,4.30
2023-10-20T03:04:37.894Z,4.75
2023-10-20T03:07:06.524Z,4.40
2023-10-20T03:09:42.375Z,5.53
2023-10-20T03:12:10.230Z,5.15
2023-10-20T03:14:38.072Z,4.00
2023-10-20T03:17:07.173Z,5.18
2023-10-20T03:19:34.126Z,5.50
2023-10-20T03:22:04.222Z,4.78
2023-10-20T03:24:35.055Z,4.95
2023-10-20T03:27:03.963Z,4.15
2023-10-20T03:29:31.636Z,5.80
2023-10-20T03:31:59.233Z,7.68
2023-10-20T03:34:26.822Z,5.85
2023-10-20T03:36:53.934Z,4.85
2023-10-20T03:39:23.706Z,6.68
2023-10-20T03:41:51.347Z,6.07
2023-10-20T03:44:18.482Z,6.13
2023-10-20T03:46:50.055Z,5.13
2023-10-20T03:49:17.733Z,8.05
2023-10-20T03:51:50.673Z,7.88
2023-10-20T03:54:20.681Z,10.10
2023-10-20T03:56:47.646Z,7.80
2023-10-20T03:59:16.293Z,7.57
2023-10-20T04:01:43.729Z,8.20
2023-10-20T04:04:13.124Z,6.82
2023-10-20T04:06:40.459Z,7.60
2023-10-20T04:09:11.097Z,6.25
2023-10-20T04:11:39.094Z,6.55
2023-10-20T04:14:07.930Z,8.43
2023-10-20T04:16:41.412Z,6.28
2023-10-20T04:19:13.972Z,9.02
2023-10-20T04:21:42.179Z,7.40
2023-10-20T04:24:09.299Z,8.18
2023-10-20T04:26:57.511Z,8.70
2023-10-20T04:29:24.435Z,6.35
2023-10-20T04:32:10.990Z,9.07
2023-10-20T04:34:57.424Z,8.20
2023-10-20T04:37:43.244Z,10.25
2023-10-20T04:40:29.605Z,9.63
2023-10-20T04:43:19.298Z,18.58
2023-10-20T04:45:58.137Z,8.18
2023-10-20T04:48:49.389Z,7.55
2023-10-20T04:51:47.168Z,7.65
2023-10-20T05:01:31.699Z,7.97
2023-10-20T05:04:00.480Z,6.28
2023-10-20T05:06:44.060Z,10.10
2023-10-20T05:09:14.708Z,5.78
2023-10-20T05:11:45.284Z,8.63
2023-10-20T05:14:12.260Z,9.15
2023-10-20T05:16:39.165Z,5.85
2023-10-20T05:19:06.067Z,6.18
2023-10-20T05:21:34.746Z,5.68
2023-10-20T05:24:05.058Z,6.65
2023-10-20T05:26:33.537Z,6.32
2023-10-20T05:29:00.996Z,4.47
2023-10-20T05:31:29.155Z,5.95
2023-10-20T05:33:56.419Z,6.45
2023-10-20T05:36:25.210Z,3.95
2023-10-20T05:38:54.071Z,4.82
2023-10-20T05:41:20.976Z,5.45
2023-10-20T05:43:48.533Z,4.22
2023-10-20T05:46:19.878Z,6.53
2023-10-20T05:48:51.477Z,6.45
2023-10-20T05:51:23.190Z,4.68
2023-10-20T05:53:51.441Z,3.53
2023-10-20T05:56:20.893Z,4.50
2023-10-20T05:58:49.232Z,4.15
2023-10-20T06:01:18.545Z,4.10
2023-10-20T06:03:46.719Z,3.88
2023-10-20T06:06:15.310Z,5.32
2023-10-20T06:08:47.657Z,3.72
2023-10-20T06:11:15.267Z,4.72
2023-10-20T06:13:42.772Z,3.92
2023-10-20T06:16:19.592Z,4.65
2023-10-20T06:18:46.575Z,3.55
2023-10-20T06:21:21.414Z,3.55
2023-10-20T06:23:48.386Z,5.05
2023-10-20T06:26:15.306Z,3.25
2023-10-20T06:28:42.365Z,4.82
2023-10-20T06:31:38.658Z,4.32
2023-10-20T06:34:25.112Z,3.95
2023-10-20T06:37:01.803Z,6.78
2023-10-20T06:39:28.643Z,5.88
2023-10-20T06:41:55.517Z,5.45
2023-10-20T06:44:31.297Z,4.50
2023-10-20T06:46:58.534Z,3.53
2023-10-20T06:49:27.038Z,6.20
2023-10-20T06:51:56.801Z,5.88
2023-10-20T06:54:24.002Z,5.20
2023-10-20T06:56:52.570Z,4.03
2023-10-20T06:59:19.606Z,4.80
2023-10-20T07:01:47.806Z,4.97
2023-10-20T07:04:15.272Z,4.75
2023-10-20T07:06:42.330Z,5.75
2023-10-20T07:09:14.058Z,6.50
2023-10-20T07:11:42.636Z,5.28
2023-10-20T07:14:12.333Z,6.07
2023-10-20T07:16:39.456Z,4.10
2023-10-20T07:19:07.835Z,6.45
2023-10-20T07:21:36.114Z,5.28
2023-10-20T07:24:06.086Z,5.55
2023-10-20T07:26:32.994Z,4.60
2023-10-20T07:29:00.047Z,6.55
2023-10-20T07:31:30.072Z,4.97
2023-10-20T07:33:57.540Z,4.47
2023-10-20T07:36:24.558Z,4.90
2023-10-20T07:38:51.930Z,4.78
2023-10-20T07:41:18.923Z,5.35
2023-10-20T07:43:45.790Z,4.75
2023-10-20T07:46:18.901Z,4.45
2023-10-20T07:48:47.870Z,6.27
2023-10-20T07:51:15.155Z,6.40
2023-10-20T07:53:42.123Z,5.65
2023-10-20T07:56:11.473Z,5.22
2023-10-20T07:58:39.006Z,5.10
2023-10-20T08:01:09.487Z,5.20
2023-10-20T08:03:36.519Z,5.93
2023-10-20T08:06:07.231Z,4.38
2023-10-20T08:08:34.484Z,5.03
2023-10-20T08:11:05.161Z,5.70
2023-10-20T08:13:33.310Z,5.40
2023-10-20T08:16:04.846Z,5.22
2023-10-20T08:18:34.635Z,8.82
2023-10-20T08:21:05.838Z,5.72
2023-10-20T08:23:36.032Z,5.32
2023-10-20T08:26:04.647Z,7.00
2023-10-20T08:28:32.836Z,6.80
2023-10-20T08:31:18.185Z,6.55
2023-10-20T08:33:45.516Z,6.05
2023-10-20T08:36:16.917Z,6.90
2023-10-20T08:38:47.278Z,5.55
2023-10-20T08:41:15.846Z,4.93
2023-10-20T08:43:44.149Z,6.20
2023-10-20T08:46:14.864Z,6.30
2023-10-20T08:48:43.634Z,5.40
2023-10-20T08:51:17.686Z,9.50
2023-10-20T08:53:47.748Z,7.57
2023-10-20T08:56:15.239Z,5.10
2023-10-20T08:58:45.590Z,5.97
2023-10-20T09:01:12.763Z,6.68
2023-10-20T09:03:44.599Z,6.72
2023-10-20T09:06:15.577Z,6.18
2023-10-20T09:08:45.149Z,5.97
2023-10-20T09:11:13.417Z,7.10
2023-10-20T09:13:42.513Z,6.50
2023-10-20T09:16:10.911Z,5.90
2023-10-20T09:18:54.758Z,7.70
2023-10-20T09:21:27.125Z,6.10
2023-10-20T09:24:07.963Z,5.95
2023-10-20T09:26:37.103Z,6.32
2023-10-20T09:29:10.466Z,6.20
2023-10-20T09:34:09.052Z,7.38
2023-10-20T09:36:37.623Z,6.85
2023-10-20T09:39:09.835Z,6.50
2023-10-20T09:41:44.270Z,8.00
2023-10-20T09:44:14.881Z,6.85
2023-10-20T09:46:57.895Z,6.50
2023-10-20T09:49:27.837Z,10.75
2023-10-20T09:51:57.139Z,7.25
2023-10-20T09:54:25.594Z,6.05
2023-10-20T09:56:53.460Z,8.63
2023-10-20T09:59:32.441Z,8.38
2023-10-20T10:02:02.225Z,7.10
2023-10-20T10:04:41.396Z,8.75
2023-10-20T10:07:09.724Z,10.38
2023-10-20T10:09:38.314Z,8.07
2023-10-20T10:12:15.885Z,9.73
2023-10-20T10:14:43.095Z,7.32
2023-10-20T10:17:12.893Z,9.50
2023-10-20T10:19:52.283Z,10.55
2023-10-20T10:22:30.371Z,9.63
2023-10-20T10:25:00.915Z,6.80
2023-10-20T10:27:31.414Z,7.05
2023-10-20T10:30:02.819Z,7.15
2023-10-20T10:32:34.309Z,11.00
2023-10-20T10:35:03.044Z,7.57
2023-10-20T10:37:41.337Z,7.80
2023-10-20T10:40:20.499Z,6.93
2023-10-20T10:42:52.092Z,9.15
2023-10-20T10:45:33.147Z,10.55
2023-10-20T10:48:09.219Z,8.02
2023-10-20T10:50:49.156Z,9.65
2023-10-20T10:53:16.764Z,16.40
2023-10-20T10:55:45.246Z,16.90
2023-10-20T10:58:15.691Z,13.57
2023-10-20T11:00:45.712Z,8.90
2023-10-20T11:03:15.576Z,12.10
2023-10-20T11:05:43.833Z,9.60
2023-10-20T11:08:13.920Z,9.25
2023-10-20T11:10:47.234Z,8.05
2023-10-20T11:13:17.400Z,8.32
2023-10-20T11:15:48.134Z,7.90
2023-10-20T11:18:17.650Z,9.07
2023-10-20T11:20:49.338Z,6.55
2023-10-20T11:23:21.439Z,7.22
2023-10-20T11:25:50.574Z,7.75
2023-10-20T11:28:17.956Z,8.60
2023-10-20T11:30:47.196Z,9.45
2023-10-20T11:33:16.692Z,8.25
2023-10-20T11:35:48.456Z,8.20
2023-10-20T11:38:18.295Z,9.35
2023-10-20T11:40:49.031Z,10.10
2023-10-20T11:43:16.451Z,9.52
2023-10-20T11:45:43.537Z,8.63
2023-10-20T11:48:10.578Z,9.35
2023-10-20T11:50:37.869Z,9.80
2023-10-20T11:53:05.230Z,7.70
2023-10-20T11:55:32.156Z,8.27
2023-10-20T11:57:59.869Z,10.15
2023-10-20T12:00:26.840Z,9.65
2023-10-20T12:02:53.854Z,8.20
2023-10-20T12:05:20.846Z,9.98
2023-10-20T12:07:48.022Z,11.30
2023-10-20T12:10:16.563Z,10.30
2023-10-20T12:12:43.547Z,12.02
2023-10-20T12:15:10.683Z,10.65
2023-10-20T12:17:38.388Z,10.20
2023-10-20T12:20:06.226Z,10.93
2023-10-20T12:22:33.223Z,10.23
2023-10-20T12:25:00.187Z,10.40
2023-10-20T12:27:27.957Z,9.55
2023-10-20T12:29:54.905Z,9.45
2023-10-20T12:32:21.851Z,9.77
2023-10-20T12:34:50.202Z,7.60
2023-10-20T12:37:17.072Z,9.75
2023-10-20T12:39:45.057Z,8.07
2023-10-20T12:42:14.682Z,8.88
2023-10-20T12:44:41.848Z,8.38
2023-10-20T12:47:08.913Z,8.43
2023-10-20T12:49:37.044Z,7.90
2023-10-20T12:52:05.484Z,8.88
2023-10-20T12:54:33.974Z,13.15
2023-10-20T12:57:02.283Z,7.85
2023-10-20T12:59:29.923Z,8.77
2023-10-20T13:01:57.883Z,10.18
2023-10-20T13:04:25.061Z,6.60
2023-10-20T13:07:00.554Z,8.15
2023-10-20T13:09:27.808Z,9.27
2023-10-20T13:11:55.021Z,7.43
2023-10-20T13:14:22.018Z,8.30
2023-10-20T13:16:50.108Z,8.75
2023-10-20T13:19:17.475Z,7.25
2023-10-20T13:21:44.385Z,7.45
2023-10-20T13:24:11.362Z,8.27
2023-10-20T13:26:39.094Z,9.98
2023-10-20T13:29:07.339Z,9.98
2023-10-20T13:31:35.308Z,12.88
2023-10-20T13:34:04.185Z,7.95
2023-10-20T13:36:31.204Z,7.78
2023-10-20T13:38:58.359Z,2.60
2023-10-20T13:41:25.663Z,1.73
2023-10-20T13:43:54.193Z,0.77
2023-10-20T13:46:21.556Z,1.15
2023-10-20T13:48:48.663Z,0.50
2023-10-20T13:51:16.607Z,2.50
2023-10-20T13:53:43.719Z,1.83
2023-10-20T13:56:11.866Z,2.88
2023-10-20T13:58:38.789Z,5.13
2023-10-20T14:01:06.216Z,1.48
2023-10-20T14:03:38.113Z,0.65
2023-10-20T14:06:08.145Z,0.40
2023-10-20T14:08:35.594Z,0.40
2023-10-20T14:11:06.592Z,0.40
2023-10-20T14:13:35.476Z,1.65
2023-10-20T14:16:02.466Z,0.98
2023-10-20T14:18:29.618Z,1.67
2023-10-20T14:20:59.182Z,1.98
2023-10-20T14:23:29.281Z,0.63
2023-10-20T14:26:00.338Z,1.05
2023-10-20T14:28:33.015Z,1.25
2023-10-20T14:31:04.252Z,1.70
2023-10-20T14:33:31.344Z,0.93
2023-10-20T14:35:58.944Z,0.52
2023-10-20T14:38:29.648Z,0.45
2023-10-20T14:41:04.938Z,0.30
2023-10-20T14:43:36.409Z,0.52
2023-10-20T14:46:06.678Z,0.73
2023-10-20T14:48:34.594Z,0.43
2023-10-20T14:51:06.360Z,1.88
2023-10-20T14:53:33.299Z,0.40
2023-10-20T14:56:00.233Z,3.13
2023-10-20T14:58:27.249Z,0.40
2023-10-20T15:00:54.111Z,0.40
2023-10-20T15:03:23.060Z,0.40
2023-10-20T15:05:53.008Z,0.35
2023-10-20T15:08:21.055Z,2.58
2023-10-20T15:10:48.120Z,0.50
2023-10-20T15:13:16.278Z,1.23
2023-10-20T15:15:43.256Z,0.30
2023-10-20T15:18:10.687Z,0.30
2023-10-20T15:20:41.619Z,0.30
2023-10-20T15:23:17.370Z,0.98
2023-10-20T15:25:46.436Z,1.63
2023-10-20T15:28:13.502Z,1.20
2023-10-20T15:30:40.578Z,0.40
2023-10-20T15:33:08.794Z,0.30
2023-10-20T15:35:40.972Z,0.30
2023-10-20T15:38:11.554Z,0.30
2023-10-20T15:40:40.101Z,0.40
2023-10-20T15:43:08.787Z,0.30
2023-10-20T15:45:35.886Z,0.90
2023-10-20T15:48:05.161Z,2.20
2023-10-20T15:50:36.014Z,1.45
2023-10-20T15:53:04.222Z,0.50
2023-10-20T15:55:31.172Z,0.43
2023-10-20T15:58:01.025Z,3.97
2023-10-20T16:00:27.875Z,0.40
2023-10-20T16:02:54.874Z,3.95
2023-10-20T16:05:22.530Z,2.35
2023-10-20T16:07:49.421Z,0.43
2023-10-20T16:10:16.629Z,0.85
2023-10-20T16:12:44.715Z,0.50
2023-10-20T16:15:13.963Z,1.40
2023-10-20T16:17:41.097Z,2.45
2023-10-20T16:20:10.255Z,1.08
2023-10-20T16:22:37.157Z,1.08
2023-10-20T16:25:05.390Z,0.80
2023-10-20T16:27:32.396Z,1.10
2023-10-20T16:30:03.529Z,0.82
2023-10-20T16:32:31.070Z,0.50
2023-10-20T16:34:58.149Z,1.10
2023-10-20T16:37:25.170Z,0.65
2023-10-20T16:39:54.864Z,2.90
2023-10-20T16:42:21.815Z,0.75
2023-10-20T16:44:48.793Z,6.20
2023-10-20T16:47:15.721Z,1.67
2023-10-20T16:49:42.601Z,3.33
2023-10-20T16:52:09.492Z,2.45
2023-10-20T16:54:36.759Z,0.98
2023-10-20T16:57:03.825Z,0.88
2023-10-20T16:59:30.764Z,2.20
2023-10-20T17:01:57.917Z,1.30
2023-10-20T17:04:25.710Z,0.93
2023-10-20T17:06:52.727Z,2.30
2023-10-20T17:09:19.530Z,2.65
2023-10-20T17:11:46.531Z,4.45
2023-10-20T17:14:13.398Z,1.33
2023-10-20T17:16:44.143Z,0.82
2023-10-20T17:19:11.358Z,1.20
2023-10-20T17:21:38.916Z,2.88
2023-10-20T17:24:13.038Z,1.70
2023-10-20T17:26:40.703Z,2.10
2023-10-20T17:29:08.784Z,2.15
2023-10-20T17:31:35.720Z,1.75
2023-10-20T17:34:02.649Z,3.03
2023-10-20T17:36:29.570Z,5.15
2023-10-20T17:38:58.864Z,1.75
2023-10-20T17:41:26.372Z,1.08
2023-10-20T17:43:54.299Z,2.90
2023-10-20T17:46:21.149Z,2.55
2023-10-20T17:48:48.768Z,2.03
2023-10-20T17:51:15.858Z,3.30
2023-10-20T17:53:42.736Z,2.38
2023-10-20T17:56:09.600Z,1.63
2023-10-20T17:58:36.546Z,2.83
2023-10-20T18:01:11.409Z,3.17
2023-10-20T18:03:41.298Z,3.75
2023-10-20T18:06:21.172Z,1.40
2023-10-20T18:08:53.797Z,2.78
2023-10-20T18:11:22.232Z,3.80
2023-10-20T18:13:52.341Z,3.70
2023-10-20T18:16:21.753Z,2.50
2023-10-20T18:18:49.972Z,6.03
2023-10-20T18:21:19.489Z,4.40
2023-10-20T18:23:52.042Z,8.80
2023-10-20T18:26:19.333Z,5.78
2023-10-20T18:28:47.647Z,3.15
2023-10-20T18:31:19.359Z,4.30
2023-10-20T18:33:46.981Z,3.63
2023-10-20T18:36:14.359Z,3.40
2023-10-20T18:38:42.621Z,2.22
2023-10-20T18:41:21.748Z,3.03
2023-10-20T18:43:50.314Z,3.88
2023-10-20T18:46:21.426Z,3.90
2023-10-20T18:48:49.707Z,3.42
2023-10-20T18:51:18.276Z,2.42
2023-10-20T18:53:45.555Z,5.05
2023-10-20T18:56:13.969Z,4.22
2023-10-20T18:58:40.969Z,3.50
2023-10-20T19:01:08.707Z,4.40
2023-10-20T19:03:35.795Z,3.40
2023-10-20T19:06:10.759Z,4.25
2023-10-20T19:08:41.292Z,2.50
2023-10-20T19:11:11.969Z,4.38
2023-10-20T19:13:39.227Z,1.83
2023-10-20T19:16:06.377Z,2.28
2023-10-20T19:18:33.971Z,3.17
2023-10-20T19:21:02.384Z,2.10
2023-10-20T19:23:29.749Z,4.13
2023-10-20T19:25:59.753Z,4.53
2023-10-20T19:28:26.903Z,4.72
2023-10-20T19:31:06.066Z,4.35
2023-10-20T19:33:33.173Z,5.57
2023-10-20T19:36:01.542Z,2.42
2023-10-20T19:38:28.782Z,1.98
2023-10-20T19:40:55.694Z,3.47
2023-10-20T19:43:22.825Z,3.35
2023-10-20T19:45:49.675Z,3.78
2023-10-20T19:48:16.802Z,2.50
2023-10-20T19:50:43.932Z,5.97
2023-10-20T19:53:11.040Z,4.78
2023-10-20T19:55:37.877Z,4.15
2023-10-20T19:58:05.062Z,3.30
2023-10-20T20:00:33.932Z,4.55
2023-10-20T20:03:01.264Z,2.80
2023-10-20T20:05:31.571Z,2.58
2023-10-20T20:07:58.575Z,1.85
2023-10-20T20:10:25.451Z,2.25
2023-10-20T20:12:53.388Z,2.72
2023-10-20T20:15:21.849Z,3.00
2023-10-20T20:17:50.984Z,7.25
2023-10-20T20:20:18.174Z,3.80
2023-10-20T20:22:44.993Z,1.75
2023-10-20T20:25:11.857Z,4.25
2023-10-20T20:27:39.877Z,2.83
2023-10-20T20:30:07.619Z,2.88
2023-10-20T20:32:35.092Z,1.52
2023-10-20T20:35:02.979Z,3.42
2023-10-20T20:37:31.130Z,3.03
2023-10-20T20:39:58.340Z,3.00
2023-10-20T20:42:25.183Z,4.85
2023-10-20T20:44:52.153Z,2.85
2023-10-20T20:47:19.506Z,2.55
2023-10-20T20:49:46.369Z,3.88
2023-10-20T20:52:14.029Z,3.15
2023-10-20T20:54:40.894Z,1.50
2023-10-20T20:57:08.558Z,2.05
2023-10-20T20:59:36.374Z,1.63
2023-10-20T21:02:03.970Z,3.00
2023-10-20T21:04:31.107Z,3.38
2023-10-20T21:06:58.081Z,1.80
2023-10-20T21:09:25.248Z,2.50
2023-10-20T21:11:52.286Z,4.78
2023-10-20T21:14:19.514Z,3.25
2023-10-20T21:16:47.310Z,2.35
2023-10-20T21:19:15.113Z,1.75
2023-10-20T21:21:41.969Z,3.33
2023-10-20T21:24:09.456Z,2.75
2023-10-20T21:26:36.564Z,1.35
2023-10-20T21:29:05.553Z,2.30
2023-10-20T21:31:32.760Z,4.40
2023-10-20T21:33:59.808Z,3.17
2023-10-20T21:36:27.076Z,3.75
2023-10-20T21:38:54.314Z,2.75
2023-10-20T21:41:21.413Z,2.92
2023-10-20T21:43:48.244Z,1.98
2023-10-20T21:46:15.306Z,1.70
2023-10-20T21:48:43.287Z,3.53
2023-10-20T21:51:13.761Z,2.75
2023-10-20T21:53:40.915Z,4.82
2023-10-20T21:56:10.341Z,1.35
2023-10-20T21:58:40.709Z,3.15
2023-10-20T22:01:10.391Z,3.67
2023-10-20T22:03:39.812Z,1.80
2023-10-20T22:06:09.427Z,1.55
2023-10-20T22:08:36.669Z,4.15
2023-10-20T22:11:03.599Z,2.33
2023-10-20T22:13:33.042Z,1.83
2023-10-20T22:15:59.961Z,2.03
2023-10-20T22:18:26.912Z,2.35
2023-10-20T22:20:53.917Z,3.53
2023-10-20T22:23:23.332Z,3.42
2023-10-20T22:25:50.561Z,0.90
2023-10-20T22:28:17.590Z,3.95
2023-10-20T22:30:44.543Z,3.25
2023-10-20T22:33:11.522Z,1.27
2023-10-20T22:35:38.528Z,3.72
2023-10-20T22:38:05.434Z,0.90
2023-10-20T22:40:32.278Z,1.73
2023-10-20T22:42:59.077Z,1.02
2023-10-20T22:45:26.059Z,3.58
2023-10-20T22:47:53.126Z,2.40
2023-10-20T22:50:20.585Z,2.42
2023-10-20T22:52:48.370Z,1.02
2023-10-20T22:55:15.358Z,5.35
2023-10-20T22:57:42.955Z,1.90
2023-10-20T23:00:14.203Z,3.70
2023-10-20T23:02:41.581Z,5.30
2023-10-20T23:05:09.375Z,6.47
2023-10-20T23:07:36.589Z,2.78
2023-10-20T23:10:05.001Z,2.40
2023-10-20T23:12:35.941Z,2.55
2023-10-20T23:15:05.689Z,3.67
2023-10-20T23:17:33.989Z,2.95
2023-10-20T23:20:00.813Z,3.38
2023-10-20T23:22:27.692Z,5.18
2023-10-20T23:24:54.806Z,2.85
2023-10-20T23:27:21.668Z,1.20
2023-10-20T23:29:48.712Z,1.10
2023-10-20T23:32:15.728Z,2.05
2023-10-20T23:34:42.703Z,3.92
2023-10-20T23:37:09.632Z,2.40
2023-10-20T23:39:37.228Z,1.60
2023-10-20T23:42:05.439Z,2.70
2023-10-20T23:44:32.864Z,4.13
2023-10-20T23:47:00.811Z,3.35
2023-10-20T23:49:27.843Z,3.70
2023-10-20T23:51:55.054Z,2.20
2023-10-20T23:54:22.108Z,1.80
2023-10-20T23:56:49.219Z,2.42
2023-10-20T23:59:16.081Z,1.17
